createdAt,value
2018-03-26T00:01:36.638Z,94.00
2018-03-26T00:04:03.097Z,94.10
2018-03-26T00:06:29.470Z,94.00
2018-03-26T00:08:55.977Z,94.10
2018-03-26T00:11:22.536Z,94.20
2018-03-26T00:13:49.072Z,94.10
2018-03-26T00:16:15.526Z,94.00
2018-03-26T00:18:42.015Z,94.10
2018-03-26T00:21:08.381Z,94.10
2018-03-26T00:23:35.628Z,94.00
2018-03-26T00:26:02.789Z,93.80
2018-03-26T00:28:29.968Z,93.70
2018-03-26T00:30:56.402Z,93.70
2018-03-26T00:33:22.848Z,93.70
2018-03-26T00:35:49.332Z,93.70
2018-03-26T00:38:16.483Z,93.50
2018-03-26T00:40:43.684Z,93.40
2018-03-26T00:43:10.245Z,93.40
2018-03-26T00:45:36.653Z,93.40
2018-03-26T00:48:03.156Z,93.50
2018-03-26T00:50:29.517Z,93.40
2018-03-26T00:52:55.942Z,93.30
2018-03-26T00:55:22.461Z,93.40
2018-03-26T00:57:48.872Z,93.30
2018-03-26T01:00:15.324Z,93.00
2018-03-26T01:02:41.848Z,92.80
2018-03-26T01:05:08.271Z,92.40
2018-03-26T01:07:35.409Z,92.40
2018-03-26T01:10:01.831Z,92.40
2018-03-26T01:12:28.286Z,92.30
2018-03-26T01:14:55.504Z,92.50
2018-03-26T01:17:21.928Z,92.50
2018-03-26T01:19:48.392Z,92.30
2018-03-26T01:22:15.520Z,92.60
2018-03-26T01:24:42.005Z,92.50
2018-03-26T01:27:09.136Z,92.60
2018-03-26T01:29:36.276Z,92.60
2018-03-26T01:32:02.737Z,92.60
2018-03-26T01:34:29.845Z,92.60
2018-03-26T01:36:56.258Z,92.60
2018-03-26T01:39:22.696Z,92.30
2018-03-26T01:41:49.093Z,92.40
2018-03-26T01:44:15.515Z,92.30
2018-03-26T01:46:41.944Z,92.30
2018-03-26T01:49:08.359Z,92.30
2018-03-26T01:51:34.727Z,92.20
2018-03-26T01:54:01.151Z,92.30
2018-03-26T01:56:27.537Z,92.30
2018-03-26T01:58:53.925Z,92.40
2018-03-26T02:01:20.413Z,92.10
2018-03-26T02:03:47.601Z,92.10
2018-03-26T02:06:14.072Z,92.10
2018-03-26T02:08:40.480Z,92.20
2018-03-26T02:11:06.945Z,92.10
2018-03-26T02:13:33.352Z,91.70
2018-03-26T02:15:59.813Z,91.80
2018-03-26T02:18:27.005Z,91.40
2018-03-26T02:20:54.167Z,91.30
2018-03-26T02:23:20.557Z,91.20
2018-03-26T02:25:47.742Z,90.70
2018-03-26T02:28:14.255Z,90.70
2018-03-26T02:30:40.654Z,90.60
2018-03-26T02:33:07.095Z,90.50
2018-03-26T02:35:33.491Z,90.70
2018-03-26T02:37:59.924Z,90.80
2018-03-26T02:40:27.076Z,90.70
2018-03-26T02:42:53.552Z,90.70
2018-03-26T02:45:19.992Z,90.60
2018-03-26T02:47:46.451Z,90.70
2018-03-26T02:50:12.899Z,91.30
2018-03-26T02:52:39.339Z,91.90
2018-03-26T02:55:06.526Z,91.30
2018-03-26T02:57:32.950Z,91.30
2018-03-26T02:59:59.506Z,90.90
2018-03-26T03:02:25.930Z,91.30
2018-03-26T03:04:52.357Z,90.70
2018-03-26T03:07:18.791Z,90.40
2018-03-26T03:09:45.417Z,90.20
2018-03-26T03:12:11.870Z,90.20
2018-03-26T03:14:38.284Z,90.80
2018-03-26T03:17:05.440Z,93.50
2018-03-26T03:19:31.892Z,93.50
2018-03-26T03:21:58.338Z,94.10
2018-03-26T03:24:24.758Z,93.90
2018-03-26T03:26:51.142Z,94.10
2018-03-26T03:29:17.597Z,94.20
2018-03-26T03:31:44.034Z,94.00
2018-03-26T03:34:10.471Z,94.10
2018-03-26T03:36:37.053Z,93.40
2018-03-26T03:39:03.573Z,92.80
2018-03-26T03:41:29.986Z,93.10
2018-03-26T03:43:56.402Z,93.30
2018-03-26T03:46:23.648Z,93.70
2018-03-26T03:48:50.164Z,93.70
2018-03-26T03:51:17.378Z,93.40
2018-03-26T03:53:43.842Z,93.40
2018-03-26T03:56:11.001Z,92.10
2018-03-26T03:58:37.616Z,91.80
2018-03-26T04:01:04.062Z,92.50
2018-03-26T04:03:30.492Z,93.30
2018-03-26T04:05:56.921Z,93.80
2018-03-26T04:08:23.356Z,94.60
2018-03-26T04:10:49.828Z,94.90
2018-03-26T04:13:16.359Z,94.90
2018-03-26T04:15:43.493Z,94.20
2018-03-26T04:18:09.969Z,94.20
2018-03-26T04:20:36.409Z,94.20
2018-03-26T04:23:03.721Z,93.10
2018-03-26T04:25:30.869Z,92.10
2018-03-26T04:27:57.286Z,92.00
2018-03-26T04:30:24.407Z,91.40
2018-03-26T04:32:50.853Z,91.40
2018-03-26T04:35:17.305Z,92.60
2018-03-26T04:37:43.772Z,92.90
2018-03-26T04:40:10.940Z,94.30
2018-03-26T04:42:37.357Z,94.30
2018-03-26T04:45:04.574Z,94.70
2018-03-26T04:47:30.961Z,94.60
2018-03-26T04:49:57.454Z,94.70
2018-03-26T04:52:23.885Z,94.80
2018-03-26T04:54:50.332Z,94.90
2018-03-26T04:57:16.736Z,95.00
2018-03-26T04:59:43.252Z,94.40
2018-03-26T05:02:09.728Z,94.10
2018-03-26T05:04:36.181Z,94.20
2018-03-26T05:07:02.612Z,94.50
2018-03-26T05:09:29.100Z,93.90
2018-03-26T05:11:55.811Z,93.80
2018-03-26T05:14:22.315Z,93.70
2018-03-26T05:16:48.825Z,93.60
2018-03-26T05:19:15.220Z,93.00
2018-03-26T05:21:41.713Z,93.30
2018-03-26T05:24:08.146Z,92.80
2018-03-26T05:26:35.459Z,92.80
2018-03-26T05:29:01.974Z,92.80
2018-03-26T05:31:28.454Z,92.10
2018-03-26T05:33:55.607Z,91.30
2018-03-26T05:36:22.079Z,91.70
2018-03-26T05:38:48.605Z,91.10
2018-03-26T05:41:15.898Z,90.00
2018-03-26T05:43:42.960Z,90.00
2018-03-26T05:46:09.532Z,88.30
2018-03-26T05:48:36.905Z,86.10
2018-03-26T05:51:03.427Z,86.00
2018-03-26T05:53:31.321Z,80.50
2018-03-26T05:55:57.824Z,80.20
2018-03-26T05:58:25.173Z,79.50
2018-03-26T06:00:51.605Z,79.50
2018-03-26T06:03:19.009Z,77.80
2018-03-26T06:05:46.196Z,75.40
2018-03-26T06:08:14.134Z,73.40
2018-03-26T06:10:42.207Z,73.30
2018-03-26T06:13:08.974Z,68.20
2018-03-26T06:15:35.709Z,67.30
2018-03-26T06:18:02.320Z,67.80
2018-03-26T06:20:28.855Z,70.00
2018-03-26T06:22:55.677Z,67.80
2018-03-26T06:25:22.274Z,65.70
2018-03-26T06:27:48.926Z,66.00
2018-03-26T06:30:15.712Z,65.20
2018-03-26T06:32:42.251Z,65.20
2018-03-26T06:35:08.825Z,64.90
2018-03-26T06:37:42.097Z,67.40
2018-03-26T06:40:08.582Z,67.40
2018-03-26T06:42:35.089Z,66.70
2018-03-26T06:45:01.748Z,66.30
2018-03-26T06:47:28.386Z,66.70
2018-03-26T06:49:54.897Z,67.10
2018-03-26T06:52:21.397Z,66.40
2018-03-26T06:54:47.872Z,66.40
2018-03-26T06:57:14.397Z,64.70
2018-03-26T06:59:40.934Z,66.60
2018-03-26T07:02:07.389Z,67.50
2018-03-26T07:04:34.095Z,68.00
2018-03-26T07:07:00.546Z,66.90
2018-03-26T07:09:28.181Z,67.80
2018-03-26T07:11:55.353Z,68.00
2018-03-26T07:14:21.826Z,66.70
2018-03-26T07:16:48.992Z,66.70
2018-03-26T07:19:15.535Z,67.40
2018-03-26T07:21:42.955Z,67.20
2018-03-26T07:24:09.617Z,67.20
2018-03-26T07:26:36.337Z,67.00
2018-03-26T07:29:03.754Z,65.20
2018-03-26T07:31:30.199Z,64.50
2018-03-26T07:33:56.768Z,64.60
2018-03-26T07:36:23.326Z,62.10
2018-03-26T07:38:49.969Z,59.00
2018-03-26T07:41:16.639Z,59.60
2018-03-26T07:43:43.173Z,58.20
2018-03-26T07:46:09.828Z,57.40
2018-03-26T07:48:37.144Z,56.90
2018-03-26T07:51:04.386Z,56.40
2018-03-26T07:53:30.885Z,56.30
2018-03-26T07:55:57.417Z,56.30
2018-03-26T07:58:24.861Z,56.90
2018-03-26T08:00:51.345Z,55.70
2018-03-26T08:03:17.886Z,54.20
2018-03-26T08:05:45.262Z,54.70
2018-03-26T08:08:11.738Z,54.70
2018-03-26T08:10:39.015Z,54.10
2018-03-26T08:13:05.450Z,54.00
2018-03-26T08:15:31.922Z,52.60
2018-03-26T08:17:59.341Z,52.60
2018-03-26T08:20:25.785Z,52.30
2018-03-26T08:22:53.069Z,47.00
2018-03-26T08:25:19.561Z,46.80
2018-03-26T08:27:46.159Z,48.00
2018-03-26T08:30:12.580Z,49.30
2018-03-26T08:32:39.003Z,49.50
2018-03-26T08:35:11.401Z,51.00
2018-03-26T08:37:37.885Z,52.50
2018-03-26T08:40:04.494Z,53.50
2018-03-26T08:42:31.824Z,53.00
2018-03-26T08:44:58.925Z,53.30
2018-03-26T08:47:26.381Z,53.70
2018-03-26T08:49:52.914Z,53.70
2018-03-26T08:52:20.278Z,54.70
2018-03-26T08:54:47.760Z,54.70
2018-03-26T08:57:14.382Z,54.70
2018-03-26T08:59:41.660Z,54.00
2018-03-26T09:02:08.236Z,52.60
2018-03-26T09:04:35.608Z,52.80
2018-03-26T09:07:02.925Z,52.80
2018-03-26T09:09:29.466Z,52.70
2018-03-26T09:11:56.148Z,50.60
2018-03-26T09:14:22.693Z,49.30
2018-03-26T09:16:49.312Z,47.70
2018-03-26T09:19:15.808Z,47.80
2018-03-26T09:21:42.426Z,46.80
2018-03-26T09:24:08.944Z,45.30
2018-03-26T09:26:35.462Z,45.90
2018-03-26T09:29:01.983Z,47.50
2018-03-26T09:31:28.497Z,50.00
2018-03-26T09:33:55.175Z,51.10
2018-03-26T09:36:22.400Z,52.50
2018-03-26T09:38:49.972Z,52.70
2018-03-26T09:41:18.135Z,52.00
2018-03-26T09:43:44.850Z,51.60
2018-03-26T09:46:11.391Z,51.70
2018-03-26T09:48:38.374Z,51.40
2018-03-26T09:51:04.836Z,51.30
2018-03-26T09:53:32.073Z,53.90
2018-03-26T09:55:58.569Z,53.30
2018-03-26T09:58:25.046Z,53.30
2018-03-26T10:00:52.349Z,53.60
2018-03-26T10:03:18.842Z,53.50
2018-03-26T10:05:45.582Z,53.00
2018-03-26T10:08:12.171Z,53.40
2018-03-26T10:10:38.673Z,53.20
2018-03-26T10:13:05.178Z,52.40
2018-03-26T10:15:31.681Z,53.20
2018-03-26T10:17:58.193Z,52.00
2018-03-26T10:20:24.710Z,52.10
2018-03-26T10:22:51.293Z,51.60
2018-03-26T10:25:17.787Z,52.10
2018-03-26T10:27:45.251Z,52.20
2018-03-26T10:30:11.774Z,52.90
2018-03-26T10:32:38.222Z,53.60
2018-03-26T10:35:04.791Z,54.40
2018-03-26T10:37:31.315Z,54.80
2018-03-26T10:39:57.888Z,53.80
2018-03-26T10:42:24.469Z,53.70
2018-03-26T10:44:51.090Z,54.20
2018-03-26T10:47:17.670Z,53.30
2018-03-26T10:49:44.193Z,54.70
2018-03-26T10:52:10.720Z,54.70
2018-03-26T10:54:37.170Z,55.40
2018-03-26T10:57:03.734Z,53.00
2018-03-26T10:59:30.180Z,53.50
2018-03-26T11:01:57.443Z,53.20
2018-03-26T11:04:24.316Z,52.60
2018-03-26T11:06:50.729Z,52.40
2018-03-26T11:09:18.030Z,52.20
2018-03-26T11:11:44.657Z,52.10
2018-03-26T11:14:11.165Z,53.10
2018-03-26T11:16:37.808Z,53.50
2018-03-26T11:19:04.216Z,53.40
2018-03-26T11:21:30.661Z,51.70
2018-03-26T11:23:57.561Z,51.10
2018-03-26T11:26:24.149Z,51.80
2018-03-26T11:28:51.389Z,52.90
2018-03-26T11:31:18.022Z,52.90
2018-03-26T11:33:45.552Z,52.30
2018-03-26T11:36:12.098Z,51.30
2018-03-26T11:38:38.541Z,49.50
2018-03-26T11:41:05.099Z,49.60
2018-03-26T11:43:31.592Z,49.40
2018-03-26T11:45:58.124Z,49.10
2018-03-26T11:48:25.681Z,49.80
2018-03-26T11:50:52.157Z,50.70
2018-03-26T11:53:19.430Z,48.50
2018-03-26T11:55:45.923Z,48.50
2018-03-26T11:58:12.453Z,48.70
2018-03-26T12:00:38.938Z,48.80
2018-03-26T12:03:06.228Z,45.90
2018-03-26T12:05:32.790Z,45.80
2018-03-26T12:07:59.180Z,46.60
2018-03-26T12:10:25.631Z,45.60
2018-03-26T12:12:52.230Z,46.10
2018-03-26T12:15:19.444Z,46.30
2018-03-26T12:17:46.024Z,46.30
2018-03-26T12:20:24.669Z,47.80
2018-03-26T12:22:51.150Z,47.30
2018-03-26T12:25:18.548Z,46.70
2018-03-26T12:27:57.096Z,46.60
2018-03-26T12:30:24.404Z,47.20
2018-03-26T12:32:50.898Z,46.40
2018-03-26T12:35:29.342Z,46.30
2018-03-26T12:37:55.833Z,46.10
2018-03-26T12:40:34.378Z,47.70
2018-03-26T12:43:00.935Z,48.40
2018-03-26T12:45:39.452Z,46.50
2018-03-26T12:48:06.036Z,44.50
2018-03-26T12:50:44.692Z,41.70
2018-03-26T12:53:12.045Z,37.10
2018-03-26T12:55:38.512Z,37.10
2018-03-26T12:58:16.919Z,36.40
2018-03-26T13:00:50.540Z,36.80
2018-03-26T13:03:17.775Z,37.40
2018-03-26T13:05:45.201Z,37.20
2018-03-26T13:08:11.663Z,37.10
2018-03-26T13:10:38.153Z,37.50
2018-03-26T13:13:04.688Z,39.40
2018-03-26T13:15:32.193Z,38.40
2018-03-26T13:17:59.707Z,38.80
2018-03-26T13:20:26.165Z,38.70
2018-03-26T13:22:52.752Z,37.50
2018-03-26T13:25:19.294Z,37.50
2018-03-26T13:27:45.732Z,37.80
2018-03-26T13:30:12.312Z,37.90
2018-03-26T13:32:39.540Z,40.00
2018-03-26T13:35:06.044Z,40.00
2018-03-26T13:37:32.462Z,40.50
2018-03-26T13:39:59.018Z,38.60
2018-03-26T13:42:25.473Z,37.80
2018-03-26T13:44:52.031Z,38.60
2018-03-26T13:47:18.531Z,39.80
2018-03-26T13:49:45.357Z,41.10
2018-03-26T13:52:11.857Z,43.70
2018-03-26T13:54:38.453Z,46.40
2018-03-26T13:57:04.932Z,47.10
2018-03-26T13:59:31.408Z,48.70
2018-03-26T14:01:58.237Z,49.30
2018-03-26T14:04:25.662Z,48.10
2018-03-26T14:06:52.980Z,47.30
2018-03-26T14:09:31.593Z,48.00
2018-03-26T14:12:10.914Z,47.30
2018-03-26T14:14:49.616Z,47.30
2018-03-26T14:17:28.847Z,48.10
2018-03-26T14:19:55.354Z,48.50
2018-03-26T14:22:22.010Z,48.70
2018-03-26T14:24:48.567Z,49.50
2018-03-26T14:27:15.083Z,50.80
2018-03-26T14:29:41.512Z,50.90
2018-03-26T14:32:08.049Z,50.80
2018-03-26T14:34:35.269Z,49.40
2018-03-26T14:37:01.942Z,49.30
2018-03-26T14:39:28.449Z,48.60
2018-03-26T14:41:55.739Z,50.10
2018-03-26T14:44:23.033Z,51.60
2018-03-26T14:46:49.511Z,51.50
2018-03-26T14:49:16.821Z,52.70
2018-03-26T14:51:43.969Z,52.60
2018-03-26T14:54:10.403Z,52.60
2018-03-26T14:56:37.732Z,53.50
2018-03-26T14:59:05.107Z,53.40
2018-03-26T15:01:31.511Z,53.60
2018-03-26T15:04:00.944Z,53.40
2018-03-26T15:06:27.472Z,52.60
2018-03-26T15:08:53.953Z,52.90
2018-03-26T15:11:20.492Z,52.70
2018-03-26T15:13:47.663Z,50.90
2018-03-26T15:16:14.994Z,51.90
2018-03-26T15:18:42.183Z,52.70
2018-03-26T15:21:08.591Z,52.70
2018-03-26T15:23:35.198Z,52.70
2018-03-26T15:26:02.522Z,53.20
2018-03-26T15:28:29.125Z,53.20
2018-03-26T15:30:56.314Z,53.20
2018-03-26T15:33:23.234Z,53.10
2018-03-26T15:35:49.780Z,52.90
2018-03-26T15:38:16.977Z,52.40
2018-03-26T15:40:43.462Z,52.30
2018-03-26T15:43:09.911Z,52.40
2018-03-26T15:45:37.188Z,52.00
2018-03-26T15:48:04.811Z,51.90
2018-03-26T15:50:31.334Z,52.00
2018-03-26T15:52:57.860Z,51.90
2018-03-26T15:55:25.169Z,51.40
2018-03-26T15:57:51.755Z,51.30
2018-03-26T16:00:18.208Z,52.10
2018-03-26T16:02:50.600Z,52.40
2018-03-26T16:05:17.114Z,53.00
2018-03-26T16:07:44.646Z,53.10
2018-03-26T16:10:11.321Z,53.10
2018-03-26T16:12:37.806Z,52.80
2018-03-26T16:15:04.402Z,52.90
2018-03-26T16:17:31.001Z,53.20
2018-03-26T16:19:57.453Z,54.00
2018-03-26T16:22:23.952Z,54.50
2018-03-26T16:24:50.401Z,54.70
2018-03-26T16:27:16.865Z,55.20
2018-03-26T16:29:43.321Z,54.90
2018-03-26T16:32:09.844Z,54.80
2018-03-26T16:34:36.336Z,55.30
2018-03-26T16:37:05.183Z,56.10
2018-03-26T16:39:31.690Z,55.90
2018-03-26T16:42:11.012Z,55.90
2018-03-26T16:44:38.460Z,56.30
2018-03-26T16:47:05.016Z,56.50
2018-03-26T16:49:31.537Z,57.20
2018-03-26T16:51:58.120Z,57.30
2018-03-26T16:54:25.254Z,57.20
2018-03-26T16:56:51.785Z,57.20
2018-03-26T16:59:18.242Z,57.70
2018-03-26T17:01:44.826Z,58.20
2018-03-26T17:04:11.254Z,58.50
2018-03-26T17:06:37.997Z,59.00
2018-03-26T17:09:04.687Z,58.80
2018-03-26T17:11:31.158Z,58.60
2018-03-26T17:13:57.615Z,58.40
2018-03-26T17:16:24.866Z,58.50
2018-03-26T17:18:52.131Z,58.90
2018-03-26T17:21:18.596Z,58.90
2018-03-26T17:23:45.219Z,59.30
2018-03-26T17:26:12.474Z,60.00
2018-03-26T17:28:38.952Z,60.00
2018-03-26T17:31:05.713Z,60.70
2018-03-26T17:33:32.993Z,62.00
2018-03-26T17:36:00.299Z,62.50
2018-03-26T17:38:26.829Z,62.40
2018-03-26T17:40:53.515Z,62.60
2018-03-26T17:43:20.087Z,63.40
2018-03-26T17:45:46.904Z,63.50
2018-03-26T17:48:13.313Z,63.60
2018-03-26T17:50:39.855Z,63.40
2018-03-26T17:53:06.744Z,63.90
2018-03-26T17:55:33.142Z,64.50
2018-03-26T17:58:00.381Z,64.80
2018-03-26T18:00:27.701Z,65.20
2018-03-26T18:02:54.219Z,66.00
2018-03-26T18:05:20.759Z,66.30
2018-03-26T18:07:47.294Z,66.50
2018-03-26T18:10:13.857Z,67.00
2018-03-26T18:12:40.237Z,67.20
2018-03-26T18:15:07.462Z,67.80
2018-03-26T18:17:34.668Z,68.10
2018-03-26T18:20:01.920Z,68.70
2018-03-26T18:22:29.140Z,68.60
2018-03-26T18:24:56.397Z,69.10
2018-03-26T18:27:22.913Z,69.00
2018-03-26T18:29:49.458Z,69.30
2018-03-26T18:32:15.917Z,69.40
2018-03-26T18:34:42.313Z,69.40
2018-03-26T18:37:08.761Z,69.80
2018-03-26T18:39:35.195Z,70.00
2018-03-26T18:42:02.403Z,70.20
2018-03-26T18:44:28.874Z,70.20
2018-03-26T18:46:56.147Z,70.90
2018-03-26T18:49:24.526Z,70.70
2018-03-26T18:51:50.984Z,70.90
2018-03-26T18:54:17.440Z,71.40
2018-03-26T18:56:43.909Z,72.30
2018-03-26T18:59:11.225Z,72.30
2018-03-26T19:01:37.746Z,72.40
2018-03-26T19:04:04.197Z,72.90
2018-03-26T19:06:30.777Z,73.60
2018-03-26T19:08:57.879Z,73.90
2018-03-26T19:11:24.519Z,74.60
2018-03-26T19:13:51.808Z,75.40
2018-03-26T19:16:18.388Z,75.30
2018-03-26T19:18:45.964Z,75.80
2018-03-26T19:21:12.502Z,75.90
2018-03-26T19:23:38.965Z,75.60
2018-03-26T19:26:05.553Z,75.70
2018-03-26T19:28:31.991Z,75.70
2018-03-26T19:30:58.519Z,74.80
2018-03-26T19:33:25.073Z,74.40
2018-03-26T19:35:51.582Z,74.20
2018-03-26T19:38:18.264Z,74.30
2018-03-26T19:40:45.036Z,74.40
2018-03-26T19:43:11.527Z,74.40
2018-03-26T19:45:38.867Z,74.80
2018-03-26T19:48:05.910Z,74.70
2018-03-26T19:50:32.524Z,74.40
2018-03-26T19:52:59.701Z,74.90
2018-03-26T19:55:26.109Z,74.90
2018-03-26T19:57:53.241Z,74.90
2018-03-26T20:00:19.696Z,74.90
2018-03-26T20:02:46.290Z,75.20
2018-03-26T20:05:12.819Z,75.20
2018-03-26T20:07:39.275Z,76.00
2018-03-26T20:10:05.722Z,74.80
2018-03-26T20:12:32.205Z,74.80
2018-03-26T20:14:58.615Z,75.10
2018-03-26T20:17:25.145Z,75.40
2018-03-26T20:19:52.289Z,75.10
2018-03-26T20:22:18.692Z,75.10
2018-03-26T20:24:45.188Z,75.20
2018-03-26T20:27:11.646Z,75.00
2018-03-26T20:29:38.910Z,75.10
2018-03-26T20:32:05.276Z,74.80
2018-03-26T20:34:32.525Z,74.50
2018-03-26T20:36:59.146Z,74.50
2018-03-26T20:39:25.724Z,74.60
2018-03-26T20:41:52.964Z,74.20
2018-03-26T20:44:19.405Z,74.20
2018-03-26T20:46:45.821Z,74.00
2018-03-26T20:49:12.265Z,73.60
2018-03-26T20:51:38.717Z,73.40
2018-03-26T20:54:05.203Z,73.90
2018-03-26T20:56:31.597Z,73.20
2018-03-26T20:58:58.831Z,72.40
2018-03-26T21:01:25.231Z,72.50
2018-03-26T21:03:51.648Z,72.60
2018-03-26T21:06:18.086Z,72.20
2018-03-26T21:08:44.524Z,71.30
2018-03-26T21:11:11.371Z,71.30
2018-03-26T21:13:37.937Z,72.20
2018-03-26T21:16:05.169Z,71.50
2018-03-26T21:18:31.597Z,71.50
2018-03-26T21:20:58.011Z,71.20
2018-03-26T21:23:24.564Z,71.90
2018-03-26T21:25:51.002Z,71.10
2018-03-26T21:28:17.372Z,71.10
2018-03-26T21:30:43.781Z,71.00
2018-03-26T21:33:10.248Z,71.00
2018-03-26T21:35:36.717Z,71.00
2018-03-26T21:38:03.172Z,71.00
2018-03-26T21:40:29.561Z,71.00
2018-03-26T21:42:55.994Z,71.00
2018-03-26T21:45:22.776Z,71.00
2018-03-26T21:47:49.217Z,71.00
2018-03-26T21:50:15.610Z,71.40
2018-03-26T21:52:42.071Z,71.80
2018-03-26T21:55:08.559Z,71.80
2018-03-26T21:57:34.968Z,72.20
2018-03-26T22:00:01.417Z,72.00
2018-03-26T22:02:28.621Z,71.10
2018-03-26T22:04:55.048Z,71.10
2018-03-26T22:07:21.509Z,70.80
2018-03-26T22:09:47.909Z,71.60
2018-03-26T22:12:14.385Z,71.10
2018-03-26T22:14:41.661Z,72.00
2018-03-26T22:17:08.847Z,71.10
2018-03-26T22:19:35.325Z,71.00
2018-03-26T22:22:02.594Z,71.90
2018-03-26T22:24:29.153Z,71.90
2018-03-26T22:26:55.551Z,71.00
2018-03-26T22:29:22.806Z,71.10
2018-03-26T22:31:49.197Z,71.00
2018-03-26T22:34:15.600Z,72.00
2018-03-26T22:36:41.992Z,71.80
2018-03-26T22:39:08.404Z,72.60
2018-03-26T22:41:34.834Z,73.30
2018-03-26T22:44:01.256Z,73.20
2018-03-26T22:46:27.722Z,73.50
2018-03-26T22:48:54.180Z,74.90
2018-03-26T22:51:20.613Z,73.40
2018-03-26T22:53:47.809Z,72.80
2018-03-26T22:56:14.230Z,72.80
2018-03-26T22:58:40.785Z,73.10
2018-03-26T23:01:07.239Z,73.80
2018-03-26T23:03:33.722Z,74.70
2018-03-26T23:06:00.113Z,74.80
2018-03-26T23:08:26.501Z,74.40
2018-03-26T23:10:52.918Z,74.40
2018-03-26T23:13:19.286Z,74.10
2018-03-26T23:15:45.807Z,73.40
2018-03-26T23:18:12.268Z,72.90
2018-03-26T23:20:38.653Z,73.10
2018-03-26T23:23:05.052Z,72.70
2018-03-26T23:25:31.485Z,72.80
2018-03-26T23:27:58.689Z,73.30
2018-03-26T23:30:25.216Z,73.20
2018-03-26T23:32:51.634Z,74.00
2018-03-26T23:35:18.796Z,74.50
2018-03-26T23:37:45.410Z,74.30
2018-03-26T23:40:11.836Z,74.10
2018-03-26T23:42:38.282Z,74.20
2018-03-26T23:45:04.712Z,74.20
2018-03-26T23:47:31.967Z,74.80
2018-03-26T23:49:58.404Z,74.70
2018-03-26T23:52:25.572Z,75.50
2018-03-26T23:54:52.033Z,75.50
2018-03-26T23:57:18.455Z,76.70
2018-03-26T23:59:45.033Z,76.60
